Time;durP1;ratioP1;P1;durP2;ratioP2;P2;SDS_P1;SDS_P2;PMS_P1;PMS_P2;Temp;Humidity;BMP_temperature;BMP_pressure;BME280_temperature;BME280_humidity;BME280_pressure;Samples;Min_cycle;Max_cycle;Signal;HPM_P1;HPM_P2
2022/08/24 00:00:13;;;;;;;3.10;0.90;;;25.70;93.50;;;;;;5039039;28;20479;-76
2022/08/24 00:02:39;;;;;;;2.33;1.60;;;25.60;93.50;;;;;;5038835;28;20080;-76
2022/08/24 00:05:06;;;;;;;3.53;1.40;;;25.60;93.60;;;;;;5037812;28;20033;-75
2022/08/24 00:07:33;;;;;;;4.30;1.75;;;25.60;93.50;;;;;;5034679;28;20029;-77
2022/08/24 00:09:59;;;;;;;2.40;1.55;;;25.50;93.40;;;;;;5035742;28;20029;-77
2022/08/24 00:12:25;;;;;;;2.25;1.40;;;25.50;93.50;;;;;;5035567;28;20029;-77
2022/08/24 00:14:52;;;;;;;3.65;2.05;;;25.50;93.50;;;;;;5034953;28;20029;-75
2022/08/24 00:17:19;;;;;;;3.85;2.25;;;25.50;93.50;;;;;;5035315;28;20032;-76
2022/08/24 00:19:45;;;;;;;4.47;1.98;;;25.50;93.50;;;;;;5035600;28;20441;-76
2022/08/24 00:22:12;;;;;;;4.38;1.85;;;25.50;93.50;;;;;;5035331;28;20064;-75
2022/08/24 00:24:37;;;;;;;5.35;2.33;;;25.50;93.40;;;;;;5035546;28;20018;-75
2022/08/24 00:27:05;;;;;;;6.28;2.25;;;25.50;93.40;;;;;;5035159;28;20076;-76
2022/08/24 00:29:31;;;;;;;5.82;1.95;;;25.50;93.40;;;;;;5037245;28;20040;-75
2022/08/24 00:31:57;;;;;;;4.88;2.10;;;25.50;93.30;;;;;;5041219;28;20029;-75
2022/08/24 00:34:25;;;;;;;4.43;2.22;;;25.60;93.30;;;;;;5053907;28;20032;-76
2022/08/24 00:36:52;;;;;;;5.90;2.10;;;25.50;93.30;;;;;;5055291;28;20028;-75
2022/08/24 00:39:18;;;;;;;2.42;1.90;;;25.60;93.30;;;;;;5054867;28;20053;-77
2022/08/24 00:41:46;;;;;;;4.53;2.17;;;25.50;93.30;;;;;;5055045;28;20013;-75
2022/08/24 00:44:15;;;;;;;5.80;2.28;;;25.50;93.30;;;;;;5054912;28;20072;-75
2022/08/24 00:46:42;;;;;;;4.55;2.10;;;25.50;93.30;;;;;;5047387;28;20028;-76
2022/08/24 00:49:43;;;;;;;3.88;1.88;;;25.50;93.20;;;;;;5034881;28;20022;-76
2022/08/24 00:52:32;;;;;;;5.43;2.10;;;25.50;93.30;;;;;;4991042;28;20041;-75
2022/08/24 00:55:05;;;;;;;4.88;2.00;;;25.50;93.20;;;;;;5034379;28;20033;-75
2022/08/24 00:57:37;;;;;;;6.32;2.03;;;25.50;93.20;;;;;;5034695;28;20017;-76
2022/08/24 01:00:23;;;;;;;2.75;2.15;;;25.50;93.30;;;;;;5034723;28;20025;-75
2022/08/24 01:02:53;;;;;;;5.43;2.13;;;25.40;93.30;;;;;;5045831;28;20029;-77
2022/08/24 01:05:19;;;;;;;6.93;2.22;;;25.40;93.30;;;;;;5046021;28;20044;-75
2022/08/24 01:07:49;;;;;;;6.05;2.28;;;25.30;93.30;;;;;;5034303;28;20025;-76
2022/08/24 01:10:19;;;;;;;9.38;2.35;;;25.40;93.30;;;;;;5034570;28;20037;-76
2022/08/24 01:12:48;;;;;;;3.30;2.13;;;25.40;93.30;;;;;;5033216;28;20470;-75
2022/08/24 01:15:15;;;;;;;4.47;2.38;;;25.30;93.40;;;;;;5034586;28;20033;-76
2022/08/24 01:20:27;;;;;;;4.32;2.13;;;25.30;93.50;;;;;;5036523;28;20098;-76
2022/08/24 01:23:30;;;;;;;6.22;2.20;;;25.30;93.50;;;;;;5043044;28;20026;-77
2022/08/24 01:25:55;;;;;;;5.80;2.60;;;25.30;93.60;;;;;;5033242;28;20025;-75
2022/08/24 01:28:21;;;;;;;3.97;2.20;;;25.30;93.50;;;;;;5033207;28;20036;-75
2022/08/24 01:30:47;;;;;;;7.13;2.85;;;25.30;93.60;;;;;;5033829;28;20124;-75
2022/08/24 01:33:29;;;;;;;2.47;2.28;;;25.30;93.60;;;;;;5033631;28;20056;-76
2022/08/24 01:36:02;;;;;;;4.37;2.30;;;25.30;93.60;;;;;;5034123;28;20037;-75
2022/08/24 01:38:28;;;;;;;3.60;3.10;;;25.30;93.60;;;;;;5033877;28;20026;-75
2022/08/24 01:40:59;;;;;;;5.95;3.40;;;25.30;93.60;;;;;;5033932;28;20485;-75
2022/08/24 01:43:25;;;;;;;4.60;2.97;;;25.20;93.60;;;;;;5034208;28;20075;-75
2022/08/24 01:45:51;;;;;;;6.00;3.25;;;25.20;93.60;;;;;;5033571;28;20029;-75
2022/08/24 01:48:18;;;;;;;5.75;2.80;;;25.20;93.60;;;;;;5045323;28;20346;-76
2022/08/24 01:50:44;;;;;;;5.63;2.63;;;25.10;93.60;;;;;;5053550;28;20028;-75
2022/08/24 01:53:10;;;;;;;2.45;2.20;;;25.10;93.70;;;;;;5053747;28;20052;-75
2022/08/24 01:55:36;;;;;;;3.42;3.13;;;25.10;93.60;;;;;;5036793;28;20048;-75
2022/08/24 01:58:03;;;;;;;4.55;2.78;;;25.10;93.70;;;;;;5033459;28;20057;-77
2022/08/24 02:00:30;;;;;;;3.53;3.15;;;25.10;93.70;;;;;;5033054;28;20075;-76
2022/08/24 02:02:55;;;;;;;4.90;3.13;;;25.10;93.70;;;;;;5033391;28;20033;-76
2022/08/24 02:05:23;;;;;;;5.38;2.72;;;25.10;93.70;;;;;;5033528;28;20385;-76
2022/08/24 02:07:49;;;;;;;5.20;2.70;;;25.10;93.80;;;;;;5033505;28;20111;-75
2022/08/24 02:10:15;;;;;;;4.63;2.75;;;25.10;93.80;;;;;;5033200;28;20086;-76
2022/08/24 02:12:45;;;;;;;4.45;3.00;;;25.10;93.80;;;;;;5033334;28;20459;-75
2022/08/24 02:15:12;;;;;;;4.82;2.90;;;25.00;93.80;;;;;;5031821;28;20037;-77
2022/08/24 02:17:39;;;;;;;4.32;3.17;;;25.00;93.80;;;;;;5033576;28;20021;-75
2022/08/24 02:20:06;;;;;;;4.03;3.15;;;25.00;93.80;;;;;;5033074;28;20033;-77
2022/08/24 02:22:32;;;;;;;5.88;3.13;;;25.00;93.80;;;;;;5040489;28;20025;-74
2022/08/24 02:24:58;;;;;;;4.43;2.85;;;25.10;93.80;;;;;;5053121;28;20444;-75
2022/08/24 02:27:24;;;;;;;4.78;2.80;;;25.00;93.90;;;;;;5053230;28;20083;-76
2022/08/24 02:29:49;;;;;;;4.45;3.05;;;25.00;93.90;;;;;;5052273;28;20093;-75
2022/08/24 02:32:15;;;;;;;4.00;3.10;;;25.00;93.90;;;;;;5052965;28;20107;-75
2022/08/24 02:34:41;;;;;;;4.25;3.00;;;25.00;93.90;;;;;;5052768;28;20025;-75
2022/08/24 02:37:07;;;;;;;3.97;3.22;;;25.00;93.90;;;;;;5047751;28;20029;-76
2022/08/24 02:39:33;;;;;;;5.72;3.28;;;24.90;93.90;;;;;;5032937;28;20039;-75
2022/08/24 02:41:59;;;;;;;4.18;3.33;;;24.90;93.90;;;;;;5032813;28;20148;-76
2022/08/24 02:44:24;;;;;;;6.10;3.22;;;24.90;93.90;;;;;;5032866;28;20068;-75
2022/08/24 02:46:51;;;;;;;4.18;3.28;;;24.90;93.90;;;;;;5032624;28;20025;-76
2022/08/24 02:49:17;;;;;;;6.90;3.90;;;24.90;93.90;;;;;;5032868;28;20020;-75
2022/08/24 02:51:46;;;;;;;6.10;3.72;;;24.90;93.90;;;;;;5032368;28;20056;-76
2022/08/24 02:54:16;;;;;;;8.35;4.05;;;24.90;93.90;;;;;;5033197;28;20037;-75
2022/08/24 02:56:42;;;;;;;5.93;3.40;;;24.90;93.90;;;;;;5032767;28;20071;-76
2022/08/24 02:59:08;;;;;;;4.32;3.92;;;24.90;94.00;;;;;;5032665;28;20030;-76
2022/08/24 03:01:34;;;;;;;5.32;4.00;;;24.80;94.00;;;;;;5032575;28;20029;-75
2022/08/24 03:04:00;;;;;;;7.35;4.35;;;24.80;94.00;;;;;;5032957;28;20112;-77
2022/08/24 03:06:25;;;;;;;5.53;4.80;;;24.80;94.10;;;;;;5032737;28;20036;-76
2022/08/24 03:08:51;;;;;;;6.72;4.60;;;24.80;94.10;;;;;;5033271;28;20041;-76
2022/08/24 03:11:17;;;;;;;7.00;4.38;;;24.80;94.10;;;;;;5032350;28;20117;-76
2022/08/24 03:13:43;;;;;;;7.00;4.93;;;24.80;94.10;;;;;;5032749;28;20021;-75
2022/08/24 03:16:08;;;;;;;5.82;4.47;;;24.80;94.10;;;;;;5032451;28;20034;-75
2022/08/24 03:18:34;;;;;;;5.00;4.35;;;24.80;94.00;;;;;;5032785;28;20021;-75
2022/08/24 03:21:02;;;;;;;5.88;4.60;;;24.80;94.10;;;;;;5032573;28;20025;-75
2022/08/24 03:23:27;;;;;;;6.32;5.00;;;24.70;94.10;;;;;;5032262;28;20026;-75
2022/08/24 03:25:54;;;;;;;7.80;4.82;;;24.80;94.10;;;;;;5032311;28;20525;-76
2022/08/24 03:28:22;;;;;;;5.60;4.82;;;24.80;94.10;;;;;;5032493;28;20049;-75
2022/08/24 03:30:48;;;;;;;6.97;4.75;;;24.70;94.10;;;;;;5031834;28;20145;-75
2022/08/24 03:33:13;;;;;;;5.28;4.22;;;24.70;94.10;;;;;;5031252;28;20045;-77
2022/08/24 03:35:40;;;;;;;7.38;4.93;;;24.70;94.10;;;;;;5032553;28;20091;-75
2022/08/24 03:38:06;;;;;;;5.75;5.05;;;24.70;94.10;;;;;;5031997;28;20482;-75
2022/08/24 03:40:33;;;;;;;5.47;4.68;;;24.70;94.10;;;;;;5032289;28;20036;-75
2022/08/24 03:43:00;;;;;;;6.10;4.82;;;24.70;94.10;;;;;;5035741;28;20025;-75
2022/08/24 03:45:27;;;;;;;8.55;5.55;;;24.70;94.10;;;;;;5036243;28;20355;-74
2022/08/24 03:47:53;;;;;;;5.82;4.88;;;24.70;94.00;;;;;;5036034;28;20022;-75
2022/08/24 03:50:19;;;;;;;4.70;4.20;;;24.60;94.30;;;;;;5035638;28;20398;-77
2022/08/24 03:52:46;;;;;;;7.55;5.38;;;24.60;94.10;;;;;;5036182;28;20032;-75
2022/08/24 03:55:12;;;;;;;6.07;4.53;;;24.60;94.00;;;;;;5035722;28;20037;-76
2022/08/24 03:57:38;;;;;;;5.78;5.28;;;24.60;94.00;;;;;;5035924;28;20044;-75
2022/08/24 04:00:07;;;;;;;8.00;6.10;;;24.60;94.00;;;;;;5036048;28;20025;-75
2022/08/24 04:02:33;;;;;;;5.95;4.95;;;24.60;94.10;;;;;;5035582;28;20022;-76
2022/08/24 04:04:59;;;;;;;6.72;5.55;;;24.50;94.10;;;;;;5035560;28;20041;-76
2022/08/24 04:07:24;;;;;;;8.52;5.68;;;24.60;94.20;;;;;;5034463;28;20060;-75
2022/08/24 04:09:50;;;;;;;6.13;5.57;;;24.50;94.10;;;;;;5035458;28;20034;-76
2022/08/24 04:12:16;;;;;;;7.97;6.05;;;24.50;94.20;;;;;;5050946;28;20033;-75
2022/08/24 04:14:41;;;;;;;6.97;6.18;;;24.50;94.20;;;;;;5035740;28;20041;-75
2022/08/24 04:17:07;;;;;;;6.75;6.00;;;24.50;94.10;;;;;;5035524;28;20359;-75
2022/08/24 04:19:33;;;;;;;6.45;5.63;;;24.50;94.10;;;;;;5035011;28;20125;-76
2022/08/24 04:21:59;;;;;;;6.30;5.70;;;24.50;94.10;;;;;;5035529;28;20027;-76
2022/08/24 04:24:25;;;;;;;9.30;5.57;;;24.50;94.20;;;;;;5035175;28;20024;-76
2022/08/24 04:26:51;;;;;;;6.50;5.85;;;24.50;94.20;;;;;;5035426;28;20433;-76
2022/08/24 04:29:19;;;;;;;8.43;6.15;;;24.50;94.20;;;;;;5035900;28;20466;-76
2022/08/24 04:31:46;;;;;;;7.40;6.30;;;24.40;94.10;;;;;;5035245;28;20044;-75
2022/08/24 04:34:14;;;;;;;6.97;6.13;;;24.40;94.10;;;;;;5038568;28;20083;-76
2022/08/24 04:36:42;;;;;;;6.53;5.45;;;24.40;94.10;;;;;;5055454;28;20029;-75
2022/08/24 04:39:08;;;;;;;6.13;5.53;;;24.40;94.10;;;;;;5053696;28;20166;-74
2022/08/24 04:41:34;;;;;;;7.45;5.80;;;24.40;94.10;;;;;;5036225;28;20034;-76
2022/08/24 04:44:00;;;;;;;6.80;5.60;;;24.40;94.20;;;;;;5034765;28;20036;-76
2022/08/24 04:46:26;;;;;;;7.38;6.07;;;24.40;94.20;;;;;;5034851;28;20506;-75
2022/08/24 04:48:52;;;;;;;8.00;5.72;;;24.30;94.10;;;;;;5034920;28;20030;-76
2022/08/24 04:51:18;;;;;;;9.80;5.82;;;24.30;94.20;;;;;;5034931;28;20386;-75
2022/08/24 04:53:45;;;;;;;7.78;6.30;;;24.30;94.30;;;;;;5034175;28;20025;-75
2022/08/24 04:56:15;;;;;;;8.75;6.32;;;24.30;94.30;;;;;;5035969;28;20049;-76
2022/08/24 04:58:40;;;;;;;6.55;5.40;;;24.30;94.40;;;;;;5034910;28;20032;-75
2022/08/24 05:01:08;;;;;;;11.60;6.82;;;24.30;94.40;;;;;;5037802;28;20112;-75
2022/08/24 05:03:34;;;;;;;9.70;6.25;;;24.30;94.60;;;;;;5053691;28;20025;-74
2022/08/24 05:05:59;;;;;;;8.23;6.57;;;24.30;94.10;;;;;;5035801;28;20124;-75
2022/08/24 05:08:25;;;;;;;8.93;7.18;;;24.40;94.10;;;;;;5031531;28;20493;-75
2022/08/24 05:10:51;;;;;;;9.73;7.38;;;24.30;94.10;;;;;;5047437;28;20095;-75
2022/08/24 05:13:17;;;;;;;8.25;6.28;;;24.30;94.10;;;;;;5054493;28;20033;-74
2022/08/24 05:15:45;;;;;;;10.95;6.72;;;24.40;94.10;;;;;;5048062;28;20024;-74
2022/08/24 05:18:12;;;;;;;10.20;6.55;;;24.30;94.10;;;;;;5041564;28;20025;-74
2022/08/24 05:20:41;;;;;;;8.35;6.78;;;24.30;94.10;;;;;;5044149;28;20048;-74
2022/08/24 05:23:07;;;;;;;8.85;5.93;;;24.30;94.10;;;;;;5038527;28;20052;-75
2022/08/24 05:25:33;;;;;;;7.22;6.22;;;24.30;94.20;;;;;;5039381;28;20422;-74
2022/08/24 05:27:59;;;;;;;6.57;5.97;;;24.30;94.20;;;;;;5042933;28;20029;-75
2022/08/24 05:30:25;;;;;;;7.82;6.55;;;24.30;94.30;;;;;;5043666;28;20091;-74
2022/08/24 05:32:50;;;;;;;7.72;6.82;;;24.30;94.40;;;;;;5036668;28;20022;-74
2022/08/24 05:35:16;;;;;;;11.32;7.70;;;24.30;94.40;;;;;;5039193;28;20378;-74
2022/08/24 05:37:42;;;;;;;10.73;7.47;;;24.30;94.50;;;;;;5043155;28;20508;-75
2022/08/24 05:40:11;;;;;;;10.32;7.18;;;24.20;94.60;;;;;;5054051;28;20041;-75
2022/08/24 05:42:37;;;;;;;8.48;7.63;;;24.30;94.80;;;;;;5041355;28;20018;-75
2022/08/24 05:45:04;;;;;;;11.68;7.60;;;24.20;94.80;;;;;;5033425;28;20485;-75
2022/08/24 05:47:30;;;;;;;15.18;8.43;;;24.20;94.80;;;;;;5042262;28;20366;-74
2022/08/24 05:49:55;;;;;;;12.27;8.90;;;24.30;94.90;;;;;;5053428;28;20503;-74
2022/08/24 05:52:22;;;;;;;14.45;8.85;;;24.20;94.90;;;;;;5044719;28;20033;-74
2022/08/24 05:54:57;;;;;;;8.63;7.70;;;24.30;94.90;;;;;;5033144;28;20029;-74
2022/08/24 05:57:24;;;;;;;10.18;7.22;;;24.30;95.00;;;;;;5033208;28;20029;-73
2022/08/24 05:59:50;;;;;;;12.68;8.82;;;24.20;95.10;;;;;;5033707;28;20033;-74
2022/08/24 06:02:18;;;;;;;13.00;8.93;;;24.30;95.30;;;;;;5033679;28;20029;-74
2022/08/24 06:04:44;;;;;;;9.73;7.82;;;24.20;95.40;;;;;;5033403;28;20509;-74
2022/08/24 06:07:11;;;;;;;10.75;7.72;;;24.30;95.70;;;;;;5043550;28;20530;-74
2022/08/24 06:09:38;;;;;;;8.82;7.93;;;24.30;95.70;;;;;;5039087;28;20043;-74
2022/08/24 06:12:04;;;;;;;10.73;8.43;;;24.30;95.60;;;;;;5041970;28;20059;-74
2022/08/24 06:14:31;;;;;;;15.02;7.90;;;24.30;95.60;;;;;;5045789;28;20094;-74
2022/08/24 06:16:57;;;;;;;12.98;8.05;;;24.30;95.60;;;;;;5052944;28;20025;-74
2022/08/24 06:19:23;;;;;;;12.48;8.45;;;24.30;95.50;;;;;;5053111;28;20071;-74
2022/08/24 06:21:51;;;;;;;11.48;7.80;;;24.30;95.60;;;;;;5052239;28;20032;-74
2022/08/24 06:27:20;;;;;;;9.65;8.18;;;24.30;95.60;;;;;;5049786;28;20037;-74
2022/08/24 06:27:20;;;;;;;11.60;8.48;;;24.30;95.70;;;;;;5039817;28;20120;-74
2022/08/24 06:29:46;;;;;;;9.80;7.88;;;24.30;95.70;;;;;;5036474;28;20551;-74
2022/08/24 06:32:12;;;;;;;5.63;4.55;;;24.40;95.60;;;;;;5049207;28;20418;-77
2022/08/24 06:34:38;;;;;;;6.60;4.75;;;24.30;95.40;;;;;;5048905;28;20063;-76
2022/08/24 06:37:04;;;;;;;7.28;5.38;;;24.40;95.70;;;;;;5050544;28;20047;-75
2022/08/24 06:39:30;;;;;;;6.50;5.35;;;24.30;95.70;;;;;;5050730;28;20033;-77
2022/08/24 06:41:55;;;;;;;6.78;6.05;;;24.30;95.60;;;;;;5049044;28;20032;-76
2022/08/24 06:44:21;;;;;;;6.93;5.43;;;24.30;95.80;;;;;;5052292;28;20021;-79
2022/08/24 06:46:46;;;;;;;9.55;6.40;;;24.30;95.90;;;;;;5050084;28;20064;-76
2022/08/24 06:49:12;;;;;;;11.70;6.85;;;24.30;95.90;;;;;;5050349;28;20090;-76
2022/08/24 06:51:38;;;;;;;10.73;7.55;;;24.30;96.00;;;;;;5052612;28;20037;-75
2022/08/24 06:54:04;;;;;;;11.57;7.20;;;24.30;96.20;;;;;;5052334;28;20397;-76
2022/08/24 06:56:30;;;;;;;12.45;7.57;;;24.40;96.20;;;;;;5052167;28;20428;-77
2022/08/24 06:58:55;;;;;;;10.45;6.57;;;24.40;96.10;;;;;;5047225;28;20027;-77
2022/08/24 07:01:24;;;;;;;12.25;8.80;;;24.40;96.40;;;;;;5045350;28;20382;-75
2022/08/24 07:03:49;;;;;;;7.95;6.38;;;24.40;96.60;;;;;;5047036;28;20040;-77
2022/08/24 07:06:15;;;;;;;3.97;2.85;;;24.30;96.30;;;;;;5037891;28;20029;-76
2022/08/24 07:08:42;;;;;;;3.03;2.00;;;24.40;95.70;;;;;;5045638;28;20029;-76
2022/08/24 07:11:16;;;;;;;4.65;1.83;;;24.30;95.20;;;;;;5039275;28;20478;-77
2022/08/24 07:13:46;;;;;;;6.65;5.57;;;24.40;95.40;;;;;;5048278;28;20029;-76
2022/08/24 07:16:16;;;;;;;7.22;4.82;;;24.40;95.50;;;;;;5040371;28;20098;-78
2022/08/24 07:18:43;;;;;;;7.55;3.90;;;24.40;95.40;;;;;;5053226;28;20021;-78
2022/08/24 07:21:08;;;;;;;2.97;2.63;;;24.40;95.40;;;;;;5051781;28;20021;-78
2022/08/24 07:23:34;;;;;;;3.72;2.67;;;24.40;95.20;;;;;;5052664;28;20025;-77
2022/08/24 07:26:09;;;;;;;4.63;2.35;;;24.40;95.10;;;;;;5056281;28;20017;-78
2022/08/24 07:28:36;;;;;;;7.07;2.53;;;24.40;95.10;;;;;;5055556;28;20117;-78
2022/08/24 07:31:03;;;;;;;5.57;3.30;;;24.40;95.00;;;;;;5055538;28;20381;-78
2022/08/24 07:33:29;;;;;;;5.10;3.17;;;24.50;95.10;;;;;;5053928;28;20482;-77
2022/08/24 07:35:55;;;;;;;7.82;4.85;;;24.60;95.10;;;;;;5053701;28;20032;-79
2022/08/24 07:38:20;;;;;;;5.53;3.25;;;24.60;95.60;;;;;;5035774;28;20485;-78
2022/08/24 07:40:46;;;;;;;12.43;8.30;;;24.60;95.40;;;;;;5049433;28;20025;-77
2022/08/24 07:43:12;;;;;;;16.83;10.40;;;24.70;96.20;;;;;;5056078;28;20029;-78
2022/08/24 07:45:40;;;;;;;10.70;8.32;;;24.80;96.50;;;;;;5048104;28;20022;-77
2022/08/24 07:48:07;;;;;;;6.20;4.25;;;24.80;96.40;;;;;;5036892;28;20038;-78
2022/08/24 07:50:36;;;;;;;5.65;3.65;;;24.80;95.60;;;;;;5049256;28;20461;-77
2022/08/24 07:53:02;;;;;;;5.38;3.45;;;24.80;95.40;;;;;;5045106;28;20033;-78
2022/08/24 07:55:27;;;;;;;5.63;3.78;;;24.90;95.30;;;;;;5052505;28;20478;-78
2022/08/24 07:57:53;;;;;;;9.93;7.00;;;24.90;95.30;;;;;;5062281;28;20044;-78
2022/08/24 08:00:19;;;;;;;11.68;8.13;;;25.00;95.60;;;;;;5051474;28;20445;-78
2022/08/24 08:02:46;;;;;;;8.95;7.70;;;25.10;95.70;;;;;;5054453;28;20102;-78
2022/08/24 08:05:16;;;;;;;12.48;8.32;;;25.10;95.70;;;;;;5054602;28;20024;-78
2022/08/24 08:07:42;;;;;;;7.82;6.15;;;25.10;95.80;;;;;;5053475;28;20505;-78
2022/08/24 08:10:10;;;;;;;7.93;5.00;;;25.10;95.60;;;;;;5052916;28;20033;-77
2022/08/24 08:12:35;;;;;;;11.43;6.15;;;25.10;95.50;;;;;;5050667;28;20029;-78
2022/08/24 08:15:02;;;;;;;18.25;6.80;;;25.20;95.50;;;;;;5040827;28;20056;-79
2022/08/24 08:17:27;;;;;;;7.85;3.92;;;25.30;95.40;;;;;;5044594;28;20044;-77
2022/08/24 08:19:53;;;;;;;5.28;3.30;;;25.20;95.00;;;;;;5047007;28;20470;-77
2022/08/24 08:25:06;;;;;;;2.95;2.03;;;25.30;95.00;;;;;;5040740;28;20086;-78
2022/08/24 08:27:34;;;;;;;5.70;3.50;;;25.40;94.80;;;;;;5048303;28;20518;-77
2022/08/24 08:30:05;;;;;;;9.20;2.85;;;25.40;94.70;;;;;;5044022;28;20017;-79
2022/08/24 08:32:31;;;;;;;3.90;3.00;;;25.40;94.80;;;;;;5051854;28;20037;-77
2022/08/24 08:35:00;;;;;;;3.30;1.55;;;25.40;94.70;;;;;;5052191;28;20029;-77
2022/08/24 08:37:29;;;;;;;3.47;2.00;;;25.50;94.30;;;;;;5052360;28;20036;-78
2022/08/24 08:39:55;;;;;;;3.17;2.55;;;25.50;94.00;;;;;;5053777;28;20048;-78
2022/08/24 08:42:27;;;;;;;3.80;2.72;;;25.50;94.00;;;;;;5050898;28;20417;-77
2022/08/24 08:45:19;;;;;;;4.45;3.15;;;25.50;94.00;;;;;;5052523;28;20040;-76
2022/08/24 08:48:27;;;;;;;3.33;2.00;;;25.50;94.10;;;;;;5051441;28;20079;-78
2022/08/24 08:51:30;;;;;;;5.30;2.78;;;25.50;94.10;;;;;;5045172;28;20076;-78
2022/08/24 08:54:08;;;;;;;5.55;3.38;;;25.50;94.20;;;;;;5053958;28;20501;-76
2022/08/24 08:56:49;;;;;;;5.15;4.13;;;25.60;94.30;;;;;;5051630;28;20017;-77
2022/08/24 08:59:44;;;;;;;5.93;4.07;;;25.70;94.30;;;;;;5042861;28;20040;-77
2022/08/24 09:02:28;;;;;;;6.72;2.20;;;25.70;94.30;;;;;;5042605;28;20089;-77
2022/08/24 09:05:18;;;;;;;4.93;2.10;;;25.60;94.30;;;;;;5038191;28;20021;-77
2022/08/24 09:07:49;;;;;;;5.50;2.65;;;25.70;94.20;;;;;;5040459;28;20116;-75
2022/08/24 09:10:35;;;;;;;7.70;2.30;;;25.60;94.20;;;;;;5044121;28;20587;-77
2022/08/24 09:13:31;;;;;;;15.43;3.83;;;25.70;94.20;;;;;;5037842;28;20486;-74
2022/08/24 09:16:20;;;;;;;6.80;4.30;;;25.70;94.20;;;;;;5044879;28;20024;-76
2022/08/24 09:18:52;;;;;;;5.88;3.97;;;25.80;94.00;;;;;;5041432;28;20036;-78
2022/08/24 09:21:36;;;;;;;7.43;4.13;;;25.80;94.00;;;;;;5044872;28;20059;-79
2022/08/24 09:24:22;;;;;;;4.80;2.45;;;25.80;93.90;;;;;;5042671;28;20021;-75
2022/08/24 09:27:03;;;;;;;3.67;2.85;;;25.80;93.90;;;;;;5036825;28;20238;-72
2022/08/24 09:30:01;;;;;;;7.30;2.05;;;25.80;93.90;;;;;;5048753;28;20025;-75
2022/08/24 09:32:34;;;;;;;4.80;1.70;;;25.80;93.80;;;;;;5025718;28;20045;-73
2022/08/24 09:35:08;;;;;;;5.63;1.83;;;25.80;93.90;;;;;;5041903;28;20031;-74
2022/08/24 09:37:59;;;;;;;5.93;1.80;;;25.70;93.90;;;;;;5048663;28;20022;-74
2022/08/24 09:41:18;;;;;;;7.75;3.20;;;25.70;93.90;;;;;;5047347;28;20041;-74
2022/08/24 09:44:03;;;;;;;3.92;2.50;;;25.90;93.80;;;;;;5016757;28;20065;-74
2022/08/24 09:47:00;;;;;;;4.63;2.70;;;25.90;93.40;;;;;;5045330;28;20025;-73
2022/08/24 09:49:45;;;;;;;5.05;1.67;;;25.90;93.50;;;;;;5018133;28;20414;-74
2022/08/24 09:52:49;;;;;;;5.93;1.73;;;25.90;93.50;;;;;;5042129;28;20039;-74
2022/08/24 09:55:26;;;;;;;6.82;1.95;;;25.90;93.60;;;;;;5016540;28;20095;-74
2022/08/24 09:58:11;;;;;;;7.40;3.15;;;25.90;93.60;;;;;;5045395;28;20033;-73
2022/08/24 10:01:04;;;;;;;4.78;3.03;;;25.90;93.50;;;;;;5052023;28;20104;-71
2022/08/24 10:03:47;;;;;;;4.57;1.42;;;26.00;93.50;;;;;;5045880;28;20133;-71
2022/08/24 10:06:19;;;;;;;5.32;1.55;;;25.90;93.50;;;;;;5050524;28;20033;-71
2022/08/24 10:08:59;;;;;;;5.25;1.80;;;26.00;93.50;;;;;;5042963;28;20041;-72
2022/08/24 10:11:52;;;;;;;4.95;1.70;;;26.00;93.50;;;;;;5041730;28;20064;-71
2022/08/24 10:14:29;;;;;;;5.00;2.00;;;26.00;93.60;;;;;;5043864;28;20029;-73
2022/08/24 10:17:13;;;;;;;3.63;1.48;;;26.00;93.50;;;;;;5043047;28;20079;-72
2022/08/24 10:19:48;;;;;;;4.45;1.65;;;26.00;93.50;;;;;;5039213;28;20056;-70
2022/08/24 10:22:35;;;;;;;4.07;2.60;;;26.00;93.40;;;;;;5041461;28;20458;-70
2022/08/24 10:25:28;;;;;;;4.70;2.10;;;26.10;93.20;;;;;;5049908;28;20605;-71
2022/08/24 10:28:32;;;;;;;3.85;2.30;;;26.10;93.30;;;;;;5042026;28;20033;-71
2022/08/24 10:31:08;;;;;;;4.55;2.83;;;26.20;93.00;;;;;;5038683;28;20037;-71
2022/08/24 10:33:36;;;;;;;4.38;2.83;;;26.30;92.50;;;;;;5039394;28;20029;-70
2022/08/24 10:36:30;;;;;;;4.40;3.40;;;26.40;92.40;;;;;;5045616;28;20044;-70
2022/08/24 10:39:42;;;;;;;2.55;2.08;;;26.40;92.30;;;;;;5037670;28;20034;-70
2022/08/24 10:45:56;;;;;;;4.75;2.65;;;26.40;92.10;;;;;;5018148;28;20045;-70
2022/08/24 10:48:30;;;;;;;2.60;2.03;;;26.50;92.10;;;;;;5032489;28;20037;-71
2022/08/24 10:51:08;;;;;;;3.72;1.67;;;26.40;92.10;;;;;;5038213;28;20088;-71
2022/08/24 10:53:34;;;;;;;3.97;1.42;;;26.40;92.20;;;;;;5051417;28;20025;-70
2022/08/24 10:56:18;;;;;;;3.03;1.52;;;26.40;92.50;;;;;;5050797;28;20025;-70
2022/08/24 10:59:10;;;;;;;4.10;1.50;;;26.40;92.70;;;;;;5042674;28;20044;-70
2022/08/24 11:01:38;;;;;;;5.68;1.75;;;26.30;92.80;;;;;;5038035;28;20040;-70
2022/08/24 11:04:12;;;;;;;4.50;1.65;;;26.30;93.10;;;;;;5037964;28;20572;-70
2022/08/24 11:07:01;;;;;;;2.88;1.40;;;26.40;92.20;;;;;;5044500;28;21502;-70
2022/08/24 11:10:07;;;;;;;5.15;1.52;;;26.40;92.00;;;;;;5048815;28;20110;-69
2022/08/24 11:12:41;;;;;;;3.65;1.73;;;26.50;91.80;;;;;;5050083;28;20041;-70
2022/08/24 11:15:28;;;;;;;4.63;1.90;;;26.50;91.90;;;;;;5048322;28;20029;-69
2022/08/24 11:18:02;;;;;;;2.50;1.40;;;26.50;91.70;;;;;;5042891;28;20029;-70
2022/08/24 11:20:33;;;;;;;3.80;1.35;;;26.50;92.10;;;;;;5051595;28;20370;-69
2022/08/24 11:23:17;;;;;;;4.22;1.50;;;26.50;91.70;;;;;;5050700;28;20020;-69
2022/08/24 11:25:56;;;;;;;3.10;1.55;;;26.50;92.00;;;;;;5045687;28;20025;-69
2022/08/24 11:28:46;;;;;;;5.25;1.83;;;26.60;91.80;;;;;;5044217;28;20030;-73
2022/08/24 11:31:21;;;;;;;4.00;1.38;;;26.60;92.00;;;;;;5040472;28;20033;-71
2022/08/24 11:33:51;;;;;;;4.78;1.35;;;26.50;92.10;;;;;;5051061;28;20021;-70
2022/08/24 11:36:24;;;;;;;4.50;2.10;;;26.60;91.40;;;;;;5053779;28;20022;-70
2022/08/24 11:39:19;;;;;;;2.30;1.70;;;26.60;90.80;;;;;;5059081;28;20079;-70
2022/08/24 11:42:13;;;;;;;3.88;1.52;;;26.70;90.50;;;;;;5050510;28;20033;-70
2022/08/24 11:44:45;;;;;;;3.35;1.17;;;26.70;90.30;;;;;;5046317;28;20417;-72
2022/08/24 11:47:20;;;;;;;12.25;2.38;;;26.60;91.70;;;;;;5044129;28;20029;-70
2022/08/24 11:50:22;;;;;;;6.85;1.65;;;26.60;91.30;;;;;;5036213;28;20096;-73
2022/08/24 11:53:02;;;;;;;5.28;1.00;;;26.70;91.30;;;;;;5023278;28;20069;-75
2022/08/24 11:55:55;;;;;;;2.47;1.05;;;26.70;89.40;;;;;;5066062;28;20029;-74
2022/08/24 11:58:42;;;;;;;3.33;1.25;;;26.70;91.00;;;;;;5047598;28;20036;-73
2022/08/24 12:01:17;;;;;;;1.73;1.13;;;26.70;91.50;;;;;;5043216;28;20021;-73
2022/08/24 12:04:06;;;;;;;5.05;1.42;;;26.60;91.50;;;;;;5047915;28;20033;-72
2022/08/24 12:06:43;;;;;;;1.73;0.88;;;26.70;91.10;;;;;;5049586;28;20055;-76
2022/08/24 12:09:29;;;;;;;12.55;3.70;;;26.80;91.10;;;;;;5042991;28;20124;-71
2022/08/24 12:12:12;;;;;;;3.38;1.20;;;26.80;90.00;;;;;;5038670;28;20056;-73
2022/08/24 12:15:00;;;;;;;3.47;1.42;;;26.90;89.70;;;;;;5045907;28;20087;-71
2022/08/24 12:17:34;;;;;;;4.13;0.75;;;27.00;89.50;;;;;;5050888;28;20033;-70
2022/08/24 12:20:30;;;;;;;4.18;1.00;;;27.10;88.40;;;;;;5039049;28;20015;-70
2022/08/24 12:23:01;;;;;;;5.68;1.48;;;27.00;90.00;;;;;;5053768;28;20036;-70
2022/08/24 12:28:40;;;;;;;5.38;1.20;;;27.10;88.20;;;;;;5056072;28;20037;-70
2022/08/24 12:31:23;;;;;;;2.58;1.00;;;27.00;90.30;;;;;;5060519;28;20120;-70
2022/08/24 12:33:53;;;;;;;2.25;1.10;;;27.00;90.60;;;;;;5053122;28;20108;-70
2022/08/24 12:36:35;;;;;;;3.20;1.25;;;27.10;88.60;;;;;;5042992;28;20025;-71
2022/08/24 12:39:10;;;;;;;1.20;1.05;;;27.10;87.00;;;;;;5053354;28;20086;-70
2022/08/24 12:42:01;;;;;;;2.50;1.17;;;27.10;88.00;;;;;;5053776;28;20021;-71
2022/08/24 12:44:39;;;;;;;10.55;1.77;;;27.10;90.00;;;;;;5050702;28;20029;-71
2022/08/24 12:47:10;;;;;;;13.88;2.25;;;27.00;90.10;;;;;;5043886;28;20052;-70
2022/08/24 12:49:54;;;;;;;58.60;9.20;;;26.90;90.60;;;;;;5049529;28;20057;-71
2022/08/24 12:52:35;;;;;;;12.05;2.00;;;27.00;87.60;;;;;;5050527;28;20493;-70
2022/08/24 12:55:47;;;;;;;10.57;2.40;;;27.20;84.50;;;;;;5038377;28;20040;-71
2022/08/24 12:58:47;;;;;;;1.58;0.77;;;27.10;86.70;;;;;;5037430;28;20029;-71
2022/08/24 13:01:14;;;;;;;4.82;1.73;;;27.20;85.40;;;;;;5053287;28;20025;-71
2022/08/24 13:03:42;;;;;;;6.97;1.67;;;27.20;87.60;;;;;;5052660;28;20017;-71
2022/08/24 13:06:18;;;;;;;10.27;1.80;;;27.10;89.50;;;;;;5052989;28;20112;-69
2022/08/24 13:08:49;;;;;;;10.63;2.35;;;27.10;90.20;;;;;;5043805;28;20097;-77
2022/08/24 13:11:32;;;;;;;12.73;2.00;;;27.10;90.50;;;;;;5048766;28;20486;-75
2022/08/24 13:13:57;;;;;;;10.48;1.95;;;27.10;90.50;;;;;;5041480;28;20053;-74
2022/08/24 13:16:44;;;;;;;8.00;1.98;;;27.10;90.40;;;;;;5033657;28;20068;-76
2022/08/24 13:19:22;;;;;;;8.35;1.95;;;27.10;90.50;;;;;;5042767;28;20687;-75
2022/08/24 13:22:09;;;;;;;8.65;2.20;;;27.00;90.50;;;;;;5043437;28;20029;-77
2022/08/24 13:24:34;;;;;;;6.95;1.52;;;27.10;90.50;;;;;;5037276;28;20029;-76